Lantana, FL

12:39 PM EDT on March 30, 2015 (GMT -0400)
Fort Lauderdale Executive | | Change Station
CLOSE
Current Station
Airport
Location: Fort Lauderdale,
Elevation: 13 ft
Nearby Weather Stations

Elev 13 ft 26.20 °N, 80.18 °W | Updated 46 minutes ago

Clear
Clear
74 °F
Feels Like 74 °F
N
0
Wind Variable Wind from North

Today
High -- | Low -- °F
--% Chance of Precip.
Yesterday
High -- | Low -- °F
Precip. -- in
7:13 AM 7:36 PM
Waxing Gibbous, 80% visible
Pressure 30.26 in
Visibility 10.0 miles
Clouds Few 4000 ft
Dew Point 50 °F
Humidity 43%
Rainfall 0.00 in
Snow Depth Not available.
UV 11 out of 12
Pollen 9.20 out of 12
Air Quality Not available.
Flu Activity Not available.
METAR KFXE 301553Z 00000KT 10SM FEW040 23/10 A3025 RMK AO2 SLP245 T02330100

More Conditions Fewer Conditions

Pressure 30.26 in
Visibility 10.0 miles
Clouds Few 4000 ft
Dew Point 50 °F
Humidity 43%
Rainfall 0.00 in
Snow Depth Not available.
UV 11 out of 12
Pollen 9.20 out of 12
Air Quality Not available.
Flu Activity Not available.
METAR KFXE 301553Z 00000KT 10SM FEW040 23/10 A3025 RMK AO2 SLP245 T02330100

More Conditions Fewer Conditions

10-Day Weather Forecast

Almanac

Astronomy

Mar. 30, 2015 Rise Set
Actual Time
Civil Twilight
Nautical Twilight
Astronomical Twilight
Moon
Length of Visible Light
Length of Day
Tomorrow will be .
, % of the Moon is Illuminated

Today's Extremes

State Highs State Lows

Community

WunderPhotos

Upload Photos

1,809,533 photos uploaded!

WunderBlogs® & News

Nearby

Air Quality

  Air Quality AQ Index Pollutant
Not available.

Snow Depth

Station Depth Elevation

Earthquake Activity

City Distance Mag. Time & Date
Minimum magnitude displayed is 2.5.

Coastal Water Temperatures

Place Temperature

Stations

Nearby Weather Stations

Station Location Temp. Windchill Dew Point Humidity Wind Precip. Elev Updated Type